Time;durP1;ratioP1;P1;durP2;ratioP2;P2;SDS_P1;SDS_P2;PMS_P1;PMS_P2;Temp;Humidity;BMP_temperature;BMP_pressure;BME280_temperature;BME280_humidity;BME280_pressure;Samples;Min_cycle;Max_cycle;Signal;HPM_P1;HPM_P2
2022/08/31 00:11:44;;;;;;;;;;;;;;;11.59;100.00;99704.34;5889623;24;20338;-88
2022/08/31 03:36:58;;;;;;;;;;;;;;;11.33;100.00;99763.94;6272430;22;20334;-91
2022/08/31 03:39:29;;;;;;;;;;;;;;;11.45;100.00;99769.56;6277275;22;19947;-92
2022/08/31 03:41:56;;;;;;;;;;;;;;;11.40;100.00;99774.19;6251467;22;19918;-91
2022/08/31 03:44:22;;;;;;;;;;;;;;;11.34;100.00;99769.16;6278716;22;20319;-89
2022/08/31 03:46:49;;;;;;;;;;;;;;;11.53;100.00;99776.28;6283649;22;19934;-94
2022/08/31 03:49:14;;;;;;;;;;;;;;;11.51;100.00;99772.84;6279554;22;19911;-94
2022/08/31 03:51:39;;;;;;;;;;;;;;;11.41;100.00;99778.56;6278798;22;19946;-92
2022/08/31 03:54:05;;;;;;;;;;;;;;;11.43;100.00;99782.00;6278438;22;19915;-93
2022/08/31 03:56:30;;;;;;;;;;;;;;;11.61;100.00;99782.06;6278468;22;19911;-94
2022/08/31 03:58:55;;;;;;;;;;;;;;;11.46;100.00;99778.38;6277228;22;19918;-92
2022/08/31 04:01:20;;;;;;;;;;;;;;;11.39;100.00;99777.78;6275519;22;19911;-91
2022/08/31 04:03:46;;;;;;;;;;;;;;;11.60;100.00;99778.56;6275295;22;20319;-92
2022/08/31 04:06:11;;;;;;;;;;;;;;;11.61;100.00;99784.72;6250269;22;19972;-88
2022/08/31 04:08:37;;;;;;;;;;;;;;;11.47;100.00;99787.16;6250154;22;19912;-88
2022/08/31 04:11:07;;;;;;;;;;;;;;;11.49;100.00;99783.53;6249414;22;19984;-90
2022/08/31 04:13:33;;;;;;;;;;;;;;;11.66;100.00;99785.38;6276715;22;20266;-94
2022/08/31 04:15:59;;;;;;;;;;;;;;;11.53;100.00;99787.75;6276640;22;19957;-88
2022/08/31 04:18:24;;;;;;;;;;;;;;;11.43;100.00;99782.00;6275183;22;19922;-91
2022/08/31 04:20:49;;;;;;;;;;;;;;;11.58;100.00;99783.09;6249708;22;19990;-88
2022/08/31 04:23:15;;;;;;;;;;;;;;;11.57;100.00;99785.81;6276549;22;19934;-88
2022/08/31 04:25:41;;;;;;;;;;;;;;;11.46;100.00;99781.00;6277314;22;20048;-88
2022/08/31 04:28:07;;;;;;;;;;;;;;;11.55;100.00;99782.38;6249099;22;20422;-87
2022/08/31 04:30:33;;;;;;;;;;;;;;;11.69;100.00;99784.38;6249506;22;19911;-88
2022/08/31 04:33:00;;;;;;;;;;;;;;;11.55;100.00;99782.38;6274732;22;20246;-92
2022/08/31 04:35:26;;;;;;;;;;;;;;;11.49;100.00;99780.00;6276875;22;19919;-90
2022/08/31 04:37:51;;;;;;;;;;;;;;;11.70;100.00;99784.31;6250288;22;19918;-93
2022/08/31 04:40:19;;;;;;;;;;;;;;;11.64;100.00;99788.09;6277510;22;19915;-90
2022/08/31 07:52:15;;;;;;;;;;;;;;;11.23;100.00;99901.41;6145521;22;19984;-94
2022/08/31 07:55:06;;;;;;;;;;;;;;;11.32;100.00;99903.66;6277114;22;19919;-95
2022/08/31 07:57:42;;;;;;;;;;;;;;;11.38;100.00;99899.91;6250396;22;19915;-93
2022/08/31 08:00:08;;;;;;;;;;;;;;;11.37;100.00;99896.34;6250559;22;19986;-91
2022/08/31 08:02:37;;;;;;;;;;;;;;;11.23;100.00;99904.06;6277513;22;19923;-93
2022/08/31 08:05:07;;;;;;;;;;;;;;;11.25;100.00;99900.44;6276670;22;19911;-91
2022/08/31 08:07:33;;;;;;;;;;;;;;;11.40;100.00;99904.19;6251825;22;19918;-93
2022/08/31 08:10:03;;;;;;;;;;;;;;;11.32;100.00;99903.66;6251692;22;19945;-91
2022/08/31 08:12:35;;;;;;;;;;;;;;;11.24;100.00;99901.34;6277761;22;20296;-91
2022/08/31 08:15:01;;;;;;;;;;;;;;;11.28;100.00;99907.41;6278543;22;19911;-91
2022/08/31 08:17:26;;;;;;;;;;;;;;;11.37;100.00;99906.97;6249974;22;19958;-91
2022/08/31 08:19:51;;;;;;;;;;;;;;;11.35;100.00;99914.16;6250248;22;19915;-89
2022/08/31 08:22:17;;;;;;;;;;;;;;;11.36;100.00;99921.19;6274424;22;19934;-92
2022/08/31 08:24:44;;;;;;;;;;;;;;;11.50;100.00;99922.34;6277665;22;19998;-88
2022/08/31 08:27:10;;;;;;;;;;;;;;;11.48;100.00;99921.56;6277077;22;19998;-95
2022/08/31 08:29:36;;;;;;;;;;;;;;;11.32;100.00;99914.28;6277325;22;19993;-95
2022/08/31 08:32:07;;;;;;;;;;;;;;;11.32;100.00;99919.59;6277415;22;19919;-90
2022/08/31 08:34:32;;;;;;;;;;;;;;;11.49;100.00;99931.22;6275912;22;19915;-92
2022/08/31 08:36:57;;;;;;;;;;;;;;;11.22;100.00;99923.59;6274946;22;19942;-93
2022/08/31 08:39:23;;;;;;;;;;;;;;;11.18;100.00;99936.09;6250950;22;20402;-91
2022/08/31 08:41:51;;;;;;;;;;;;;;;11.43;100.00;99933.25;6276215;22;19911;-90
2022/08/31 08:44:17;;;;;;;;;;;;;;;11.33;100.00;99926.63;6277189;22;19915;-94
2022/08/31 08:46:53;;;;;;;;;;;;;;;11.40;100.00;99928.06;6277564;22;19937;-95
2022/08/31 08:49:26;;;;;;;;;;;;;;;11.49;100.00;99933.88;6275487;22;19939;-90
2022/08/31 08:51:58;;;;;;;;;;;;;;;11.41;100.00;99940.41;6272400;22;19994;-89
2022/08/31 08:54:42;;;;;;;;;;;;;;;11.36;100.00;99937.09;6249437;22;19946;-89
2022/08/31 08:57:13;;;;;;;;;;;;;;;11.36;100.00;99945.06;6248699;22;20242;-89
2022/08/31 08:59:42;;;;;;;;;;;;;;;11.25;100.00;99940.22;6276316;22;19915;-88
2022/08/31 09:02:11;;;;;;;;;;;;;;;11.36;100.00;99941.53;6275848;22;20330;-87
2022/08/31 09:04:59;;;;;;;;;;;;;;;11.34;100.00;99940.75;6276225;22;20246;-88
2022/08/31 09:07:44;;;;;;;;;;;;;;;11.29;100.00;99935.63;6274583;22;19911;-86
2022/08/31 09:10:27;;;;;;;;;;;;;;;11.26;100.00;99941.94;6274342;22;20278;-88
2022/08/31 09:12:56;;;;;;;;;;;;;;;11.38;100.00;99945.00;6276129;22;20026;-88
2022/08/31 09:15:35;;;;;;;;;;;;;;;11.47;100.00;99943.72;6274498;22;19911;-90
2022/08/31 09:18:19;;;;;;;;;;;;;;;11.41;100.00;99950.16;6274344;22;19907;-87
2022/08/31 09:20:59;;;;;;;;;;;;;;;11.33;100.00;99954.91;6274231;22;19956;-87
2022/08/31 09:23:28;;;;;;;;;;;;;;;11.25;100.00;99960.59;6275908;22;19907;-88
2022/08/31 09:25:54;;;;;;;;;;;;;;;11.45;100.00;99955.28;6274809;22;19972;-87
2022/08/31 09:28:48;;;;;;;;;;;;;;;11.38;100.00;99956.47;6276001;22;19911;-89
2022/08/31 09:31:34;;;;;;;;;;;;;;;11.38;100.00;99955.59;6273750;22;19938;-88
2022/08/31 09:34:03;;;;;;;;;;;;;;;11.39;100.00;99968.81;6276257;22;19917;-90
2022/08/31 09:36:42;;;;;;;;;;;;;;;11.47;100.00;99959.63;6247360;22;19939;-88
2022/08/31 09:39:16;;;;;;;;;;;;;;;11.45;100.00;99973.84;6276205;22;19915;-88
2022/08/31 09:41:42;;;;;;;;;;;;;;;11.37;100.00;99967.13;6276234;22;20411;-89
2022/08/31 09:44:20;;;;;;;;;;;;;;;11.39;100.00;99974.13;6249054;22;19916;-89
2022/08/31 09:46:47;;;;;;;;;;;;;;;11.49;100.00;99968.38;6276087;22;19911;-89
2022/08/31 09:49:20;;;;;;;;;;;;;;;11.49;100.00;99968.38;6276299;22;19918;-93
2022/08/31 09:51:47;;;;;;;;;;;;;;;11.33;100.00;99966.41;6272792;22;19911;-87
2022/08/31 09:57:01;;;;;;;;;;;;;;;11.59;100.00;99969.72;6276527;22;19918;-90
2022/08/31 09:59:36;;;;;;;;;;;;;;;11.52;100.00;99969.13;6275658;22;19922;-88
2022/08/31 10:02:06;;;;;;;;;;;;;;;11.41;100.00;99982.84;6274427;22;20323;-88
2022/08/31 10:04:35;;;;;;;;;;;;;;;11.33;100.00;99974.38;6275896;22;19911;-87
2022/08/31 10:07:36;;;;;;;;;;;;;;;11.45;100.00;99981.81;6274016;22;19922;-93
2022/08/31 10:10:02;;;;;;;;;;;;;;;11.47;100.00;99975.56;6242002;22;20216;-89
2022/08/31 10:12:46;;;;;;;;;;;;;;;11.42;100.00;99979.28;6274536;22;19966;-88
2022/08/31 10:15:40;;;;;;;;;;;;;;;11.42;100.00;99973.97;6274337;22;19961;-90
2022/08/31 10:18:12;;;;;;;;;;;;;;;11.53;100.00;99968.19;6262019;22;20101;-91
2022/08/31 10:20:50;;;;;;;;;;;;;;;11.60;100.00;99977.63;6274506;22;19911;-88
2022/08/31 10:23:35;;;;;;;;;;;;;;;11.38;100.00;99983.00;6275447;22;19915;-92
2022/08/31 10:26:04;;;;;;;;;;;;;;;11.31;100.00;99976.22;6274374;22;19922;-91
2022/08/31 10:28:30;;;;;;;;;;;;;;;11.30;100.00;99974.50;6275426;22;19918;-87
2022/08/31 10:31:30;;;;;;;;;;;;;;;11.44;100.00;99971.25;6275715;22;19916;-88
2022/08/31 10:36:49;;;;;;;;;;;;;;;11.61;100.00;99966.03;6273961;22;19945;-89
2022/08/31 10:39:27;;;;;;;;;;;;;;;11.60;100.00;99958.19;6275282;22;19911;-89
2022/08/31 10:41:52;;;;;;;;;;;;;;;11.58;100.00;99952.94;6274025;22;20242;-89
2022/08/31 10:44:26;;;;;;;;;;;;;;;11.52;100.00;99958.53;6275058;22;19990;-90
2022/08/31 10:46:57;;;;;;;;;;;;;;;11.31;100.00;99957.63;6248505;22;20019;-90
2022/08/31 10:49:34;;;;;;;;;;;;;;;11.42;100.00;99958.06;6275308;22;19915;-90
2022/08/31 10:52:01;;;;;;;;;;;;;;;11.65;100.00;99953.53;6273970;22;20311;-88
2022/08/31 10:54:27;;;;;;;;;;;;;;;11.48;100.00;99956.06;6273786;22;19911;-89
2022/08/31 10:57:11;;;;;;;;;;;;;;;11.49;100.00;99955.13;6275426;22;19949;-89
2022/08/31 10:59:52;;;;;;;;;;;;;;;11.56;100.00;99954.78;6275397;22;19915;-93
2022/08/31 11:02:36;;;;;;;;;;;;;;;11.53;100.00;99954.91;6275457;22;19911;-88
2022/08/31 11:05:25;;;;;;;;;;;;;;;11.78;100.00;99949.38;6275414;22;19957;-88
2022/08/31 11:08:04;;;;;;;;;;;;;;;11.64;100.00;99952.66;6275568;22;19911;-91
2022/08/31 11:10:41;;;;;;;;;;;;;;;11.72;100.00;99951.47;6275363;22;19965;-87
2022/08/31 11:13:13;;;;;;;;;;;;;;;11.67;100.00;99943.69;6274096;22;19911;-90
2022/08/31 11:15:39;;;;;;;;;;;;;;;11.37;100.00;99936.16;6275437;22;19917;-89
2022/08/31 11:18:13;;;;;;;;;;;;;;;11.33;100.00;99939.00;6275582;22;19938;-87
2022/08/31 11:20:53;;;;;;;;;;;;;;;11.55;100.00;99938.94;6272086;22;19923;-88
2022/08/31 11:23:47;;;;;;;;;;;;;;;12.11;100.00;99937.28;6277234;22;19941;-88
2022/08/31 11:26:12;;;;;;;;;;;;;;;11.95;100.00;99929.19;6277385;22;19911;-89
2022/08/31 11:28:47;;;;;;;;;;;;;;;11.85;100.00;99919.91;6277266;22;19938;-90
2022/08/31 11:31:23;;;;;;;;;;;;;;;11.79;100.00;99929.88;6277552;22;20238;-89
2022/08/31 11:33:56;;;;;;;;;;;;;;;11.67;100.00;99925.13;6250269;22;19947;-89
2022/08/31 11:36:41;;;;;;;;;;;;;;;11.80;100.00;99920.97;6275207;22;19919;-90
2022/08/31 11:39:06;;;;;;;;;;;;;;;11.82;100.00;99921.78;6250373;22;19924;-88
2022/08/31 11:41:50;;;;;;;;;;;;;;;11.62;100.00;99911.19;6275647;22;19911;-91
2022/08/31 11:44:32;;;;;;;;;;;;;;;11.87;100.00;99907.41;6277128;22;19934;-88
2022/08/31 11:47:16;;;;;;;;;;;;;;;12.00;100.00;99900.66;6276836;22;19915;-88
2022/08/31 11:49:43;;;;;;;;;;;;;;;11.60;100.00;99892.69;6276961;22;19911;-88
2022/08/31 11:52:23;;;;;;;;;;;;;;;11.82;100.00;99897.88;6275346;22;19946;-87
2022/08/31 11:54:49;;;;;;;;;;;;;;;11.68;100.00;99889.69;6276838;22;19961;-87
2022/08/31 11:57:37;;;;;;;;;;;;;;;12.00;100.00;99890.03;6276937;22;20281;-87
2022/08/31 12:00:16;;;;;;;;;;;;;;;11.72;100.00;99880.63;6276442;22;19911;-89
2022/08/31 12:02:44;;;;;;;;;;;;;;;11.73;100.00;99877.06;6249582;22;19982;-87
2022/08/31 12:05:09;;;;;;;;;;;;;;;11.85;100.00;99880.94;6248413;22;20001;-88
2022/08/31 12:07:35;;;;;;;;;;;;;;;11.69;100.00;99880.78;6276714;22;19988;-87
2022/08/31 12:10:00;;;;;;;;;;;;;;;11.82;100.00;99879.28;6276629;22;19919;-88
2022/08/31 12:12:44;;;;;;;;;;;;;;;11.54;100.00;99889.47;6274851;22;19911;-89
2022/08/31 12:15:19;;;;;;;;;;;;;;;11.56;100.00;99880.47;6275023;22;19911;-88
2022/08/31 12:17:59;;;;;;;;;;;;;;;11.72;100.00;99877.97;6274843;22;19938;-88
2022/08/31 12:23:38;;;;;;;;;;;;;;;11.76;100.00;99865.44;6276554;22;19925;-88
2022/08/31 12:26:03;;;;;;;;;;;;;;;11.60;100.00;99866.16;6276842;22;19916;-88
2022/08/31 12:28:44;;;;;;;;;;;;;;;11.60;100.00;99865.31;6276445;22;19961;-89
2022/08/31 12:31:12;;;;;;;;;;;;;;;11.55;100.00;99857.53;6274926;22;20377;-89
2022/08/31 12:33:43;;;;;;;;;;;;;;;11.68;100.00;99860.50;6276042;22;20239;-88
2022/08/31 12:36:11;;;;;;;;;;;;;;;15.42;100.00;99860.03;6248199;22;20216;-90
2022/08/31 12:38:36;;;;;;;;;;;;;;;13.23;100.00;99857.31;6231903;22;19921;-89
2022/08/31 12:41:02;;;;;;;;;;;;;;;12.31;100.00;99848.69;6249253;22;19928;-89
2022/08/31 12:43:31;;;;;;;;;;;;;;;12.23;100.00;99848.22;6249369;22;20387;-90
2022/08/31 12:46:25;;;;;;;;;;;;;;;12.11;100.00;99849.66;6249596;22;19917;-88
2022/08/31 12:49:02;;;;;;;;;;;;;;;12.01;100.00;99843.94;6124147;22;19913;-89
2022/08/31 12:51:51;;;;;;;;;;;;;;;11.71;100.00;99835.59;6119893;23;20335;-89
2022/08/31 12:54:23;;;;;;;;;;;;;;;11.55;100.00;99825.69;6251933;22;19913;-89
2022/08/31 12:56:48;;;;;;;;;;;;;;;11.68;100.00;99835.72;6121998;23;19917;-88
2022/08/31 12:59:32;;;;;;;;;;;;;;;11.91;100.00;99839.97;6121479;23;19992;-89
2022/08/31 13:01:58;;;;;;;;;;;;;;;11.64;100.00;99835.00;6121491;23;20225;-90
2022/08/31 13:05:05;;;;;;;;;;;;;;;11.76;100.00;99839.75;6121508;23;19962;-90
2022/08/31 13:07:31;;;;;;;;;;;;;;;11.55;100.00;99838.09;6121543;22;19920;-89
2022/08/31 13:10:01;;;;;;;;;;;;;;;11.78;100.00;99842.34;6122087;23;19917;-90
2022/08/31 13:12:26;;;;;;;;;;;;;;;11.72;100.00;99835.50;6222945;23;19948;-90
2022/08/31 13:14:51;;;;;;;;;;;;;;;11.55;100.00;99841.63;6121827;23;19924;-91
2022/08/31 13:17:20;;;;;;;;;;;;;;;11.64;100.00;99835.00;6121555;23;20298;-89
2022/08/31 13:19:56;;;;;;;;;;;;;;;11.58;100.00;99835.28;6222791;23;20004;-89
2022/08/31 13:22:24;;;;;;;;;;;;;;;11.49;100.00;99833.94;6118460;22;19935;-90
2022/08/31 13:27:22;;;;;;;;;;;;;;;11.45;100.00;99827.94;6114526;23;19979;-90
2022/08/31 13:29:49;;;;;;;;;;;;;;;11.61;100.00;99824.53;6248773;22;20286;-90
2022/08/31 13:32:21;;;;;;;;;;;;;;;11.57;100.00;99817.66;6223383;23;19924;-92
2022/08/31 13:34:46;;;;;;;;;;;;;;;11.27;100.00;99810.19;6248486;22;20244;-91
2022/08/31 13:37:22;;;;;;;;;;;;;;;11.51;100.00;99812.66;6120423;23;19913;-89
2022/08/31 13:39:51;;;;;;;;;;;;;;;14.27;100.00;99796.59;6121519;23;20332;-88
2022/08/31 13:42:23;;;;;;;;;;;;;;;13.08;100.00;99804.91;6121806;23;19916;-93
2022/08/31 13:44:56;;;;;;;;;;;;;;;12.21;100.00;99808.44;6120447;23;19923;-89
2022/08/31 13:47:46;;;;;;;;;;;;;;;11.72;100.00;99814.28;6121368;23;19917;-89
2022/08/31 13:50:47;;;;;;;;;;;;;;;11.36;100.00;99816.84;6220058;23;19917;-88
2022/08/31 13:53:35;;;;;;;;;;;;;;;11.34;100.00;99811.59;6120970;23;19913;-89
2022/08/31 13:56:53;;;;;;;;;;;;;;;11.25;100.00;99809.41;6121523;23;19959;-88
2022/08/31 13:59:18;;;;;;;;;;;;;;;11.21;100.00;99805.16;6121094;23;20268;-88
2022/08/31 14:01:52;;;;;;;;;;;;;;;11.04;100.00;99806.78;6222511;23;20325;-89
2022/08/31 14:04:53;;;;;;;;;;;;;;;11.11;100.00;99802.06;6121201;23;19917;-88
2022/08/31 14:07:27;;;;;;;;;;;;;;;11.00;100.00;99786.63;6247145;22;19913;-89
2022/08/31 14:09:59;;;;;;;;;;;;;;;11.12;100.00;99798.47;6120931;23;20312;-91
2022/08/31 14:12:34;;;;;;;;;;;;;;;11.16;100.00;99799.19;6121253;23;19949;-89
2022/08/31 14:15:18;;;;;;;;;;;;;;;10.96;100.00;99793.00;6222737;23;20395;-89
2022/08/31 14:17:49;;;;;;;;;;;;;;;10.88;100.00;99792.44;6223770;23;20317;-90
2022/08/31 14:20:27;;;;;;;;;;;;;;;11.29;100.00;99792.41;6246671;22;19913;-89
2022/08/31 14:22:53;;;;;;;;;;;;;;;11.07;100.00;99790.72;6223141;23;19919;-89
2022/08/31 14:25:20;;;;;;;;;;;;;;;10.85;100.00;99787.28;6222875;23;19917;-89
2022/08/31 14:27:46;;;;;;;;;;;;;;;10.86;100.00;99779.28;6243254;23;19916;-87
2022/08/31 14:30:12;;;;;;;;;;;;;;;11.02;100.00;99779.44;6243371;23;19921;-89
2022/08/31 14:32:38;;;;;;;;;;;;;;;11.11;100.00;99777.34;6269112;22;20375;-89
2022/08/31 14:35:06;;;;;;;;;;;;;;;11.03;100.00;99775.03;6268921;22;19950;-86
2022/08/31 14:38:16;;;;;;;;;;;;;;;11.00;100.00;99781.31;6266716;22;20422;-89
2022/08/31 14:40:42;;;;;;;;;;;;;;;10.99;100.00;99784.03;6244107;23;19962;-89
2022/08/31 14:43:12;;;;;;;;;;;;;;;10.83;100.00;99779.44;6245045;22;20419;-89
2022/08/31 14:45:37;;;;;;;;;;;;;;;10.81;100.00;99775.13;6234729;22;20514;-89
2022/08/31 14:48:03;;;;;;;;;;;;;;;10.92;100.00;99783.44;6162458;23;19952;-89
2022/08/31 14:50:28;;;;;;;;;;;;;;;10.96;100.00;99768.25;6161209;23;20269;-85
2022/08/31 14:52:56;;;;;;;;;;;;;;;10.84;100.00;99767.03;6063220;23;19917;-93
2022/08/31 14:55:23;;;;;;;;;;;;;;;10.98;100.00;99774.38;6064022;23;20388;-92
2022/08/31 14:57:56;;;;;;;;;;;;;;;11.09;100.00;99758.84;6190175;23;19989;-94
2022/08/31 15:00:22;;;;;;;;;;;;;;;11.02;100.00;99760.03;6064857;23;19956;-92
2022/08/31 15:02:52;;;;;;;;;;;;;;;10.91;100.00;99771.13;6061893;23;19917;-91
2022/08/31 15:05:22;;;;;;;;;;;;;;;11.01;100.00;99772.44;6062402;23;19914;-93
2022/08/31 15:07:49;;;;;;;;;;;;;;;11.07;100.00;99765.97;6165216;23;19914;-93
2022/08/31 15:10:17;;;;;;;;;;;;;;;10.99;100.00;99762.81;6062847;23;19918;-91
2022/08/31 15:12:43;;;;;;;;;;;;;;;10.96;100.00;99773.56;6165026;23;19917;-89
2022/08/31 15:15:13;;;;;;;;;;;;;;;10.99;100.00;99771.66;6163491;23;20242;-90
2022/08/31 15:17:39;;;;;;;;;;;;;;;11.01;100.00;99775.09;6164305;23;19910;-94
2022/08/31 15:20:05;;;;;;;;;;;;;;;10.91;100.00;99776.41;6215043;23;19914;-92
2022/08/31 15:22:31;;;;;;;;;;;;;;;11.03;100.00;99765.28;6163489;23;19964;-90
2022/08/31 15:24:57;;;;;;;;;;;;;;;11.03;100.00;99765.28;6165933;23;19913;-91
2022/08/31 15:27:27;;;;;;;;;;;;;;;10.94;100.00;99770.97;6065944;23;19964;-94
2022/08/31 15:30:00;;;;;;;;;;;;;;;11.08;100.00;99770.38;6215727;23;19933;-91
2022/08/31 15:32:26;;;;;;;;;;;;;;;11.10;100.00;99773.81;6165193;23;19921;-92
2022/08/31 15:34:57;;;;;;;;;;;;;;;11.04;100.00;99767.00;6166916;23;19913;-92
2022/08/31 15:37:26;;;;;;;;;;;;;;;10.98;100.00;99771.72;6216267;23;19914;-92
2022/08/31 15:39:51;;;;;;;;;;;;;;;11.00;100.00;99768.06;6063635;23;20001;-89
2022/08/31 15:42:19;;;;;;;;;;;;;;;11.19;100.00;99769.88;6064844;23;19945;-89
2022/08/31 15:44:44;;;;;;;;;;;;;;;11.03;100.00;99767.06;6165436;23;19927;-89
2022/08/31 15:49:54;;;;;;;;;;;;;;;10.94;100.00;99772.78;6216916;23;19961;-93
2022/08/31 15:52:20;;;;;;;;;;;;;;;11.03;100.00;99769.72;6189507;23;19911;-87
2022/08/31 15:54:45;;;;;;;;;;;;;;;10.93;100.00;99774.56;6216750;23;20002;-90
2022/08/31 15:57:11;;;;;;;;;;;;;;;10.87;100.00;99775.69;6190716;23;20296;-88
2022/08/31 15:59:41;;;;;;;;;;;;;;;11.05;100.00;99773.16;6218241;23;20221;-92
2022/08/31 16:02:09;;;;;;;;;;;;;;;11.07;100.00;99766.88;6218149;23;19922;-90
2022/08/31 16:04:37;;;;;;;;;;;;;;;10.97;100.00;99770.00;6190390;23;20615;-91
2022/08/31 16:07:06;;;;;;;;;;;;;;;10.95;100.00;99763.91;6188187;23;19987;-88
2022/08/31 16:09:31;;;;;;;;;;;;;;;11.05;100.00;99765.19;6189340;23;19919;-88
2022/08/31 16:11:57;;;;;;;;;;;;;;;10.94;100.00;99768.31;6188831;23;19935;-88
2022/08/31 16:14:23;;;;;;;;;;;;;;;10.90;100.00;99764.13;6240165;23;19916;-89
2022/08/31 16:16:49;;;;;;;;;;;;;;;11.08;100.00;99767.72;6216039;23;19960;-90
2022/08/31 16:19:16;;;;;;;;;;;;;;;11.02;100.00;99768.00;6215973;23;20316;-90
2022/08/31 16:21:44;;;;;;;;;;;;;;;10.91;100.00;99771.13;6213709;23;19926;-90
2022/08/31 16:24:11;;;;;;;;;;;;;;;11.02;100.00;99778.59;6211346;23;19943;-85
2022/08/31 16:26:38;;;;;;;;;;;;;;;11.06;100.00;99775.75;6212393;23;19911;-88
2022/08/31 16:29:05;;;;;;;;;;;;;;;10.98;100.00;99767.28;6189292;23;19999;-93
2022/08/31 16:31:30;;;;;;;;;;;;;;;11.00;100.00;99768.06;6215774;23;19912;-89
2022/08/31 16:33:56;;;;;;;;;;;;;;;11.12;100.00;99765.78;6187686;23;19927;-87
2022/08/31 16:36:22;;;;;;;;;;;;;;;11.09;100.00;99770.31;6187844;23;19919;-88
2022/08/31 16:38:48;;;;;;;;;;;;;;;11.01;100.00;99772.44;6215192;23;20336;-86
2022/08/31 16:41:14;;;;;;;;;;;;;;;11.08;100.00;99773.03;6188841;23;19916;-86
2022/08/31 16:43:40;;;;;;;;;;;;;;;11.09;100.00;99775.59;6214746;23;20351;-86
2022/08/31 16:46:06;;;;;;;;;;;;;;;10.99;100.00;99778.72;6160093;23;19917;-89
2022/08/31 16:51:18;;;;;;;;;;;;;;;11.09;100.00;99778.25;6062917;23;19920;-89
2022/08/31 16:53:45;;;;;;;;;;;;;;;11.05;100.00;99784.63;6163779;23;19952;-87
2022/08/31 16:56:10;;;;;;;;;;;;;;;10.95;100.00;99771.88;6062687;23;20016;-92
2022/08/31 16:58:37;;;;;;;;;;;;;;;11.01;100.00;99776.84;6064232;23;20289;-86
2022/08/31 17:01:11;;;;;;;;;;;;;;;11.13;100.00;99780.78;6064337;23;19917;-87
2022/08/31 17:03:50;;;;;;;;;;;;;;;10.99;100.00;99779.63;6163858;23;19997;-92
2022/08/31 17:06:23;;;;;;;;;;;;;;;10.91;100.00;99781.72;6062781;23;19941;-87
2022/08/31 17:09:08;;;;;;;;;;;;;;;11.05;100.00;99781.97;6063864;23;20290;-92
2022/08/31 17:11:37;;;;;;;;;;;;;;;11.17;100.00;99783.22;6063947;23;19917;-86
2022/08/31 17:14:03;;;;;;;;;;;;;;;11.01;100.00;99783.06;6063915;23;20040;-93
2022/08/31 17:16:30;;;;;;;;;;;;;;;10.92;100.00;99783.44;6064133;23;19917;-88
2022/08/31 17:18:57;;;;;;;;;;;;;;;11.13;100.00;99780.78;6064529;23;20237;-87
2022/08/31 17:21:25;;;;;;;;;;;;;;;11.11;100.00;99785.28;6162402;23;19921;-93
2022/08/31 17:23:55;;;;;;;;;;;;;;;10.97;100.00;99785.91;6164357;23;20326;-85
2022/08/31 17:26:20;;;;;;;;;;;;;;;10.98;100.00;99788.47;6163983;23;19963;-88
2022/08/31 17:28:51;;;;;;;;;;;;;;;11.14;100.00;99790.47;6064102;23;19913;-92
2022/08/31 17:31:17;;;;;;;;;;;;;;;11.06;100.00;99793.44;6063703;23;19935;-87
2022/08/31 17:33:42;;;;;;;;;;;;;;;10.96;100.00;99794.78;6164076;23;19988;-90
2022/08/31 17:36:08;;;;;;;;;;;;;;;11.13;100.00;99791.38;6061828;23;19999;-92
2022/08/31 17:38:34;;;;;;;;;;;;;;;11.09;100.00;99793.31;6164575;23;19922;-91
2022/08/31 17:41:06;;;;;;;;;;;;;;;10.97;100.00;99791.19;6065223;23;19914;-94
2022/08/31 17:43:38;;;;;;;;;;;;;;;11.09;100.00;99783.56;6164218;23;20012;-91
2022/08/31 17:46:07;;;;;;;;;;;;;;;11.14;100.00;99795.75;6103539;23;19926;-93
2022/08/31 17:48:34;;;;;;;;;;;;;;;11.05;100.00;99786.41;6214725;23;19912;-94
2022/08/31 17:51:03;;;;;;;;;;;;;;;11.01;100.00;99796.31;6188001;23;19985;-94
2022/08/31 17:53:29;;;;;;;;;;;;;;;11.20;100.00;99800.75;6216430;23;20347;-93
2022/08/31 17:55:55;;;;;;;;;;;;;;;11.11;100.00;99804.72;6214199;23;19924;-85
2022/08/31 17:58:21;;;;;;;;;;;;;;;10.99;100.00;99806.13;6246048;22;19930;-90
2022/08/31 18:00:48;;;;;;;;;;;;;;;11.51;100.00;99808.19;6249808;22;19912;-90
2022/08/31 18:03:13;;;;;;;;;;;;;;;11.20;100.00;99812.25;6276038;22;19907;-91
2022/08/31 18:05:43;;;;;;;;;;;;;;;10.99;100.00;99808.78;6248946;22;20239;-92
2022/08/31 18:08:08;;;;;;;;;;;;;;;10.96;100.00;99823.94;6250916;22;19946;-93
2022/08/31 18:10:38;;;;;;;;;;;;;;;11.11;100.00;99819.75;6277735;22;19908;-93
2022/08/31 18:13:04;;;;;;;;;;;;;;;10.97;100.00;99826.53;6251079;22;19911;-91
2022/08/31 18:15:48;;;;;;;;;;;;;;;10.86;100.00;99826.13;6277612;22;19917;-89
2022/08/31 18:18:14;;;;;;;;;;;;;;;10.97;100.00;99823.88;6277445;22;19911;-92
2022/08/31 18:20:40;;;;;;;;;;;;;;;10.94;100.00;99824.00;6276858;22;19912;-93
2022/08/31 18:23:21;;;;;;;;;;;;;;;10.75;100.00;99828.38;6275824;22;20209;-93
2022/08/31 18:25:54;;;;;;;;;;;;;;;10.68;100.00;99822.50;6275794;22;20624;-94
2022/08/31 18:31:23;;;;;;;;;;;;;;;10.90;100.00;99831.22;6183497;23;19920;-89
2022/08/31 18:36:53;;;;;;;;;;;;;;;10.62;100.00;99834.19;6273840;22;19932;-92
2022/08/31 18:39:24;;;;;;;;;;;;;;;10.66;100.00;99830.50;6279399;22;19918;-92
2022/08/31 18:51:11;;;;;;;;;;;;;;;;;;;;;
2022/08/31 18:56:10;;;;;;;;;;;;;;;10.69;100.00;99842.75;6121538;23;19967;-91
2022/08/31 18:58:36;;;;;;;;;;;;;;;10.65;100.00;99855.25;6120839;23;19917;-89
2022/08/31 19:01:11;;;;;;;;;;;;;;;10.52;100.00;99854.06;6223070;23;19913;-91
2022/08/31 19:03:38;;;;;;;;;;;;;;;10.58;100.00;99848.53;6246607;22;19920;-91
2022/08/31 19:12:38;;;;;;;;;;;;;;;10.61;100.00;99844.84;6094678;23;19941;-89
2022/08/31 19:15:27;;;;;;;;;;;;;;;10.48;100.00;99848.03;6069945;23;19992;-90
2022/08/31 19:17:55;;;;;;;;;;;;;;;10.53;100.00;99850.50;6181112;23;19945;-90
2022/08/31 19:23:35;;;;;;;;;;;;;;;10.62;100.00;99851.88;6129821;22;20505;-90
2022/08/31 19:26:03;;;;;;;;;;;;;;;10.51;100.00;99847.91;6121300;23;20019;-90
2022/08/31 19:28:47;;;;;;;;;;;;;;;10.46;100.00;99856.97;6122885;23;19920;-90
2022/08/31 19:31:25;;;;;;;;;;;;;;;10.64;100.00;99856.22;6225062;23;19913;-89
2022/08/31 19:36:58;;;;;;;;;;;;;;;10.53;100.00;99846.06;6202798;23;19963;-90
2022/08/31 19:42:11;;;;;;;;;;;;;;;10.47;100.00;99845.47;6210721;23;19915;-90
2022/08/31 19:44:45;;;;;;;;;;;;;;;10.63;100.00;99841.22;6213315;23;19916;-90
2022/08/31 19:47:10;;;;;;;;;;;;;;;10.53;100.00;99840.75;6187882;23;19915;-89
2022/08/31 19:49:36;;;;;;;;;;;;;;;10.45;100.00;99848.16;6187835;23;19916;-87
2022/08/31 19:52:17;;;;;;;;;;;;;;;10.65;100.00;99846.47;6212420;23;19916;-90
2022/08/31 19:54:43;;;;;;;;;;;;;;;10.58;100.00;99842.34;6209728;23;19919;-90
2022/08/31 19:57:09;;;;;;;;;;;;;;;10.80;100.00;99831.69;6212572;23;19984;-87
2022/08/31 19:59:35;;;;;;;;;;;;;;;10.82;100.00;99840.47;6122501;23;19913;-89
2022/08/31 20:02:04;;;;;;;;;;;;;;;10.67;100.00;99842.84;6121414;23;19913;-90
2022/08/31 20:04:30;;;;;;;;;;;;;;;10.43;100.00;99838.56;6121592;23;19913;-90
2022/08/31 20:06:56;;;;;;;;;;;;;;;10.39;100.00;99847.53;6120561;23;20333;-90
2022/08/31 20:09:24;;;;;;;;;;;;;;;10.60;100.00;99845.81;6223938;23;19913;-87
2022/08/31 20:11:51;;;;;;;;;;;;;;;10.49;100.00;99843.59;6121173;23;19913;-91
2022/08/31 20:14:17;;;;;;;;;;;;;;;10.32;100.00;99844.25;6120446;22;19917;-89
2022/08/31 20:16:43;;;;;;;;;;;;;;;10.48;100.00;99853.34;6223143;23;19913;-87
2022/08/31 20:19:10;;;;;;;;;;;;;;;10.48;100.00;99850.69;6121547;23;19917;-87
2022/08/31 20:21:40;;;;;;;;;;;;;;;10.33;100.00;99853.97;6119855;23;19921;-85
2022/08/31 20:24:07;;;;;;;;;;;;;;;10.45;100.00;99852.59;6120077;23;20066;-86
2022/08/31 20:26:34;;;;;;;;;;;;;;;10.51;100.00;99841.75;6120862;23;19967;-86
2022/08/31 20:29:03;;;;;;;;;;;;;;;10.30;100.00;99844.31;6121265;23;19913;-86
2022/08/31 20:31:28;;;;;;;;;;;;;;;10.30;100.00;99843.47;6121357;23;20574;-85